createdAt,value
2022-10-24T00:01:43.316Z,9.61
2022-10-24T00:05:47.486Z,9.60
2022-10-24T00:09:49.358Z,9.57
2022-10-24T00:13:51.806Z,9.60
2022-10-24T00:17:53.784Z,9.63
2022-10-24T00:21:55.507Z,9.73
2022-10-24T00:26:01.897Z,9.78
2022-10-24T00:30:05.408Z,9.81
2022-10-24T00:34:07.364Z,9.77
2022-10-24T00:38:09.033Z,9.82
2022-10-24T00:42:12.711Z,9.87
2022-10-24T00:46:16.617Z,9.80
2022-10-24T00:50:18.546Z,9.84
2022-10-24T00:54:20.771Z,9.75
2022-10-24T00:58:27.576Z,9.96
2022-10-24T01:02:29.248Z,9.77
2022-10-24T01:07:09.700Z,9.77
2022-10-24T01:11:44.901Z,9.77
2022-10-24T01:15:56.628Z,9.80
2022-10-24T01:20:16.288Z,9.91
2022-10-24T01:24:45.959Z,9.95
2022-10-24T01:29:00.355Z,9.88
2022-10-24T01:33:18.650Z,9.95
2022-10-24T01:37:27.806Z,9.93
2022-10-24T01:41:31.209Z,9.88
2022-10-24T01:45:36.289Z,9.92
2022-10-24T01:49:41.146Z,9.94
2022-10-24T01:53:44.657Z,9.93
2022-10-24T01:57:46.861Z,9.97
2022-10-24T02:01:48.742Z,10.05
2022-10-24T02:05:58.302Z,9.92
2022-10-24T02:10:06.302Z,9.98
2022-10-24T02:14:36.903Z,9.90
2022-10-24T02:18:39.971Z,9.79
2022-10-24T02:23:14.121Z,9.83
2022-10-24T02:27:21.371Z,9.87
2022-10-24T02:31:27.220Z,9.93
2022-10-24T02:35:32.672Z,10.14
2022-10-24T02:39:35.218Z,10.04
2022-10-24T02:43:38.668Z,9.97
2022-10-24T02:47:43.731Z,10.03
2022-10-24T02:51:47.339Z,10.03
2022-10-24T02:55:49.256Z,10.01
2022-10-24T02:59:50.908Z,10.20
2022-10-24T03:03:52.736Z,10.09
2022-10-24T03:07:54.437Z,10.07
2022-10-24T03:11:56.245Z,10.19
2022-10-24T03:15:58.508Z,10.18
2022-10-24T03:20:00.538Z,10.08
2022-10-24T03:24:02.206Z,10.09
2022-10-24T03:28:04.852Z,10.01
2022-10-24T03:32:06.683Z,9.97
2022-10-24T03:36:08.972Z,9.99
2022-10-24T03:40:11.680Z,9.97
2022-10-24T03:44:13.473Z,9.83
2022-10-24T03:48:15.112Z,9.96
2022-10-24T03:52:17.035Z,9.74
2022-10-24T03:56:18.845Z,9.86
2022-10-24T04:00:21.350Z,9.93
2022-10-24T04:04:23.361Z,9.87
2022-10-24T04:08:25.203Z,9.88
2022-10-24T04:12:26.895Z,9.88
2022-10-24T04:16:29.169Z,10.05
2022-10-24T04:20:30.801Z,10.02
2022-10-24T04:24:33.340Z,10.05
2022-10-24T04:28:35.321Z,10.01
2022-10-24T04:32:37.697Z,9.88
2022-10-24T04:36:39.415Z,9.84
2022-10-24T04:40:51.944Z,9.90
2022-10-24T04:44:53.609Z,10.00
2022-10-24T04:48:55.374Z,9.85
2022-10-24T04:52:57.244Z,9.88
2022-10-24T04:56:59.583Z,9.91
2022-10-24T05:01:01.430Z,9.92
2022-10-24T05:05:04.096Z,10.02
2022-10-24T05:09:05.851Z,10.06
2022-10-24T05:13:07.663Z,10.16
2022-10-24T05:17:09.492Z,10.16
2022-10-24T05:21:11.630Z,10.25
2022-10-24T05:25:13.545Z,10.17
2022-10-24T05:29:15.565Z,10.18
2022-10-24T05:33:17.240Z,10.26
2022-10-24T05:37:19.103Z,10.32
2022-10-24T05:41:21.058Z,10.33
2022-10-24T05:45:23.039Z,10.34
2022-10-24T05:49:24.989Z,10.19
2022-10-24T05:53:27.282Z,10.25
2022-10-24T05:57:30.026Z,10.37
2022-10-24T06:01:32.153Z,10.33
2022-10-24T06:05:34.057Z,10.33
2022-10-24T06:09:35.899Z,10.43
2022-10-24T06:13:38.295Z,10.39
2022-10-24T06:17:40.265Z,10.46
2022-10-24T06:21:41.978Z,10.44
2022-10-24T06:25:43.839Z,10.48
2022-10-24T06:29:45.644Z,10.51
2022-10-24T06:33:47.574Z,10.64
2022-10-24T06:37:50.223Z,10.65
2022-10-24T06:41:52.431Z,10.60
2022-10-24T06:45:55.504Z,10.56
2022-10-24T06:49:57.373Z,10.56
2022-10-24T06:53:59.913Z,10.56
2022-10-24T06:58:01.841Z,10.58
2022-10-24T07:02:06.010Z,10.53
2022-10-24T07:10:29.975Z,10.62
2022-10-24T07:14:31.827Z,10.61
2022-10-24T07:18:33.779Z,10.75
2022-10-24T07:22:36.033Z,10.78
2022-10-24T07:26:39.106Z,10.85
2022-10-24T07:30:44.086Z,10.87
2022-10-24T07:34:47.770Z,10.92
2022-10-24T07:38:51.819Z,11.07
2022-10-24T07:42:53.549Z,11.03
2022-10-24T07:46:55.787Z,11.16
2022-10-24T07:50:57.695Z,11.20
2022-10-24T07:54:59.651Z,11.30
2022-10-24T07:59:09.227Z,11.18
2022-10-24T08:03:11.762Z,11.37
2022-10-24T08:07:13.832Z,11.28
2022-10-24T08:11:19.478Z,11.25
2022-10-24T08:15:23.063Z,11.52
2022-10-24T08:23:33.755Z,11.60
2022-10-24T08:27:36.076Z,11.85
2022-10-24T08:31:38.664Z,11.86
2022-10-24T08:35:43.536Z,12.14
2022-10-24T08:39:45.291Z,12.14
2022-10-24T08:43:47.459Z,12.15
2022-10-24T08:48:07.120Z,12.11
2022-10-24T08:52:30.411Z,12.18
2022-10-24T08:56:33.962Z,11.97
2022-10-24T09:00:42.586Z,12.11
2022-10-24T09:04:58.227Z,12.10
2022-10-24T09:09:06.047Z,12.32
2022-10-24T09:13:13.770Z,12.48
2022-10-24T09:17:33.725Z,12.74
2022-10-24T09:21:35.516Z,12.95
2022-10-24T09:25:41.507Z,12.84
2022-10-24T09:29:43.647Z,13.10
2022-10-24T09:33:47.869Z,13.25
2022-10-24T09:37:55.856Z,13.32
2022-10-24T09:41:59.616Z,13.34
2022-10-24T09:46:06.212Z,13.36
2022-10-24T09:50:22.494Z,13.40
2022-10-24T09:54:28.121Z,13.43
2022-10-24T09:58:34.123Z,13.51
2022-10-24T10:02:36.614Z,13.65
2022-10-24T10:06:44.676Z,13.84
2022-10-24T10:10:57.804Z,13.88
2022-10-24T10:15:02.665Z,13.73
2022-10-24T10:19:15.153Z,13.74
2022-10-24T10:23:22.521Z,13.91
2022-10-24T10:27:34.922Z,14.13
2022-10-24T10:31:48.628Z,14.13
2022-10-24T10:36:16.446Z,14.15
2022-10-24T10:40:39.888Z,14.35
2022-10-24T10:44:55.134Z,14.74
2022-10-24T10:49:12.039Z,14.77
2022-10-24T10:53:31.705Z,14.76
2022-10-24T10:57:59.488Z,14.85
2022-10-24T11:02:23.301Z,14.98
2022-10-24T11:06:36.875Z,15.09
2022-10-24T11:10:44.765Z,15.09
2022-10-24T11:15:00.867Z,15.05
2022-10-24T11:19:26.103Z,15.25
2022-10-24T11:23:40.965Z,15.11
2022-10-24T11:27:55.243Z,15.30
2022-10-24T11:32:14.792Z,15.33
2022-10-24T11:36:23.164Z,15.47
2022-10-24T11:45:00.212Z,15.63
2022-10-24T11:49:23.461Z,15.64
2022-10-24T11:53:31.541Z,15.72
2022-10-24T11:57:33.959Z,16.13
2022-10-24T12:01:55.341Z,16.17
2022-10-24T12:06:55.950Z,16.27
2022-10-24T12:11:32.247Z,16.76
2022-10-24T12:15:52.239Z,16.85
2022-10-24T12:19:54.546Z,17.13
2022-10-24T12:23:59.805Z,17.42
2022-10-24T12:28:18.190Z,17.49
2022-10-24T12:32:36.179Z,17.52
2022-10-24T12:37:03.118Z,17.43
2022-10-24T12:41:06.863Z,17.49
2022-10-24T12:45:32.175Z,17.49
2022-10-24T12:49:33.908Z,17.49
2022-10-24T12:53:55.951Z,17.31
2022-10-24T12:57:58.403Z,17.12
2022-10-24T13:02:15.535Z,16.94
2022-10-24T13:06:40.987Z,17.03
2022-10-24T13:11:13.503Z,17.43
2022-10-24T13:15:46.144Z,17.45
2022-10-24T13:20:02.541Z,17.49
2022-10-24T13:24:16.580Z,17.54
2022-10-24T13:28:24.389Z,17.65
2022-10-24T13:32:32.370Z,17.38
2022-10-24T13:36:34.849Z,17.46
2022-10-24T13:40:36.777Z,17.40
2022-10-24T13:44:45.329Z,17.43
2022-10-24T13:48:48.870Z,17.20
2022-10-24T13:52:54.955Z,16.98
2022-10-24T13:56:59.748Z,17.11
2022-10-24T14:01:07.450Z,17.04
2022-10-24T14:05:22.227Z,17.03
2022-10-24T14:09:24.204Z,17.01
2022-10-24T14:13:28.299Z,16.85
2022-10-24T14:17:34.500Z,16.84
2022-10-24T14:21:42.474Z,16.79
2022-10-24T14:25:44.482Z,16.79
2022-10-24T14:29:56.673Z,16.41
2022-10-24T14:33:58.547Z,16.37
2022-10-24T14:38:00.662Z,16.19
2022-10-24T14:42:03.126Z,16.05
2022-10-24T14:46:13.605Z,15.79
2022-10-24T14:50:43.761Z,15.47
2022-10-24T14:55:02.479Z,15.24
2022-10-24T14:59:15.399Z,15.17
2022-10-24T15:03:17.398Z,14.94
2022-10-24T15:07:37.809Z,14.78
2022-10-24T15:11:41.905Z,14.52
2022-10-24T15:15:43.739Z,14.29
2022-10-24T15:19:47.211Z,14.10
2022-10-24T15:23:55.722Z,13.98
2022-10-24T15:28:01.206Z,13.90
2022-10-24T15:32:06.117Z,13.73
2022-10-24T15:36:26.123Z,13.64
2022-10-24T15:40:31.400Z,13.51
2022-10-24T15:44:33.576Z,13.34
2022-10-24T15:48:35.466Z,13.23
2022-10-24T15:52:37.314Z,13.03
2022-10-24T15:56:39.673Z,12.87
2022-10-24T16:00:41.737Z,12.62
2022-10-24T16:04:44.792Z,12.63
2022-10-24T16:08:46.463Z,12.54
2022-10-24T16:12:50.101Z,12.52
2022-10-24T16:16:55.430Z,12.46
2022-10-24T16:20:59.060Z,12.45
2022-10-24T16:25:00.709Z,12.36
2022-10-24T16:29:02.738Z,12.29
2022-10-24T16:33:04.751Z,12.29
2022-10-24T16:37:06.639Z,12.17
2022-10-24T16:41:15.003Z,12.10
2022-10-24T16:45:17.859Z,12.00
2022-10-24T16:49:19.520Z,11.89
2022-10-24T16:53:22.148Z,11.88
2022-10-24T17:01:28.038Z,11.66
2022-10-24T17:05:29.937Z,11.62
2022-10-24T17:09:31.897Z,11.64
2022-10-24T17:13:33.696Z,11.56
2022-10-24T17:17:36.177Z,11.43
2022-10-24T17:21:37.811Z,11.34
2022-10-24T17:25:40.024Z,11.31
2022-10-24T17:29:43.083Z,11.32
2022-10-24T17:33:45.124Z,11.42
2022-10-24T17:38:40.140Z,11.43
2022-10-24T17:42:43.356Z,11.23
2022-10-24T17:46:45.838Z,11.27
2022-10-24T17:50:48.211Z,11.32
2022-10-24T17:54:50.718Z,11.24
2022-10-24T17:58:52.626Z,11.11
2022-10-24T18:02:54.489Z,11.07
2022-10-24T18:06:56.577Z,11.09
2022-10-24T18:11:04.027Z,10.99
2022-10-24T18:15:08.259Z,10.88
2022-10-24T18:19:10.020Z,10.96
2022-10-24T18:23:11.858Z,11.03
2022-10-24T18:27:13.537Z,11.10
2022-10-24T18:31:21.451Z,11.05
2022-10-24T18:35:23.414Z,11.15
2022-10-24T18:39:29.152Z,11.16
2022-10-24T18:43:31.896Z,11.23
2022-10-24T18:47:34.206Z,11.36
2022-10-24T18:52:01.312Z,11.43
2022-10-24T18:56:03.456Z,11.42
2022-10-24T19:00:06.682Z,11.50
2022-10-24T19:04:21.049Z,11.42
2022-10-24T19:08:25.489Z,11.36
2022-10-24T19:12:28.272Z,11.39
2022-10-24T19:16:32.396Z,11.36
2022-10-24T19:20:35.712Z,11.37
2022-10-24T19:24:37.429Z,11.31
2022-10-24T19:28:39.428Z,11.25
2022-10-24T19:32:41.173Z,11.06
2022-10-24T19:36:43.031Z,11.05
2022-10-24T19:40:52.881Z,11.06
2022-10-24T19:44:56.454Z,11.02
2022-10-24T19:48:58.078Z,11.02
2022-10-24T19:52:59.969Z,11.04
2022-10-24T19:57:01.755Z,11.06
2022-10-24T20:01:16.759Z,11.26
2022-10-24T20:05:18.694Z,11.39
2022-10-24T20:09:20.636Z,11.46
2022-10-24T20:13:22.597Z,11.61
2022-10-24T20:17:24.514Z,11.73
2022-10-24T20:21:26.353Z,11.82
2022-10-24T20:25:28.234Z,11.83
2022-10-24T20:29:29.891Z,11.85
2022-10-24T20:33:32.423Z,11.83
2022-10-24T20:37:34.222Z,11.85
2022-10-24T20:41:37.022Z,11.78
2022-10-24T20:45:40.129Z,11.77
2022-10-24T20:49:41.941Z,11.75
2022-10-24T20:53:44.001Z,11.72
2022-10-24T20:57:45.974Z,11.63
2022-10-24T21:01:47.708Z,11.67
2022-10-24T21:05:49.679Z,11.61
2022-10-24T21:09:51.341Z,11.57
2022-10-24T21:14:05.428Z,11.57
2022-10-24T21:18:07.055Z,11.77
2022-10-24T21:22:09.109Z,11.73
2022-10-24T21:26:13.344Z,11.76
2022-10-24T21:30:15.484Z,11.72
2022-10-24T21:34:18.262Z,11.59
2022-10-24T21:38:20.195Z,11.67
2022-10-24T21:42:21.794Z,11.71
2022-10-24T21:46:26.391Z,11.91
2022-10-24T21:50:28.002Z,12.00
2022-10-24T21:54:30.463Z,12.05
2022-10-24T21:58:32.582Z,12.09
2022-10-24T22:02:34.779Z,12.14
2022-10-24T22:06:37.423Z,12.17
2022-10-24T22:10:39.512Z,12.15
2022-10-24T22:14:41.169Z,12.30
2022-10-24T22:18:43.032Z,12.29
2022-10-24T22:22:44.849Z,12.36
2022-10-24T22:26:47.729Z,12.36
2022-10-24T22:30:49.619Z,12.41
2022-10-24T22:34:51.736Z,12.50
2022-10-24T22:38:54.536Z,12.45
2022-10-24T22:42:57.261Z,12.53
2022-10-24T22:47:21.722Z,12.54
2022-10-24T22:51:23.825Z,12.48
2022-10-24T22:55:33.207Z,12.51
2022-10-24T22:59:35.527Z,12.48
2022-10-24T23:03:46.559Z,12.37
2022-10-24T23:08:04.843Z,12.39
2022-10-24T23:12:15.946Z,12.44
2022-10-24T23:16:29.403Z,12.41
2022-10-24T23:20:39.275Z,12.33
2022-10-24T23:24:41.468Z,12.44
2022-10-24T23:28:54.081Z,12.48
2022-10-24T23:32:56.322Z,12.31
2022-10-24T23:37:04.125Z,12.36
2022-10-24T23:41:10.511Z,12.29
2022-10-24T23:45:16.991Z,12.29
2022-10-24T23:49:34.910Z,12.27
2022-10-24T23:53:49.977Z,12.19
2022-10-24T23:57:51.809Z,12.29
